sensor_id;sensor_type;location;lat;lon;timestamp;temperature;humidity
52879;DHT22;38747;53.140;6.498;2023-03-26T00:00:05;7.60;99.90
52879;DHT22;38747;53.140;6.498;2023-03-26T00:02:33;7.60;99.90
52879;DHT22;38747;53.140;6.498;2023-03-26T00:04:59;7.50;99.90
52879;DHT22;38747;53.140;6.498;2023-03-26T00:07:24;7.50;99.90
52879;DHT22;38747;53.140;6.498;2023-03-26T00:09:52;7.50;99.90
52879;DHT22;38747;53.140;6.498;2023-03-26T00:12:18;7.40;99.90
52879;DHT22;38747;53.140;6.498;2023-03-26T00:14:43;7.40;99.90
52879;DHT22;38747;53.140;6.498;2023-03-26T00:17:09;7.30;99.90
52879;DHT22;38747;53.140;6.498;2023-03-26T00:19:35;7.30;99.90
52879;DHT22;38747;53.140;6.498;2023-03-26T00:22:01;7.30;99.90
52879;DHT22;38747;53.140;6.498;2023-03-26T00:24:28;7.30;99.90
52879;DHT22;38747;53.140;6.498;2023-03-26T00:26:54;7.30;99.90
52879;DHT22;38747;53.140;6.498;2023-03-26T00:29:20;7.30;99.90
52879;DHT22;38747;53.140;6.498;2023-03-26T00:31:52;7.30;99.90
52879;DHT22;38747;53.140;6.498;2023-03-26T00:34:17;7.30;99.90
52879;DHT22;38747;53.140;6.498;2023-03-26T00:36:44;7.30;99.90
52879;DHT22;38747;53.140;6.498;2023-03-26T00:39:11;7.30;99.90
52879;DHT22;38747;53.140;6.498;2023-03-26T00:41:38;7.30;99.90
52879;DHT22;38747;53.140;6.498;2023-03-26T00:44:07;7.30;99.90
52879;DHT22;38747;53.140;6.498;2023-03-26T00:46:33;7.30;99.90
52879;DHT22;38747;53.140;6.498;2023-03-26T00:48:59;7.30;99.90
52879;DHT22;38747;53.140;6.498;2023-03-26T00:51:27;7.30;99.90
52879;DHT22;38747;53.140;6.498;2023-03-26T00:53:52;7.30;99.90
52879;DHT22;38747;53.140;6.498;2023-03-26T00:56:18;7.30;99.90
52879;DHT22;38747;53.140;6.498;2023-03-26T00:58:45;7.20;99.90
52879;DHT22;38747;53.140;6.498;2023-03-26T01:01:14;7.20;99.90
52879;DHT22;38747;53.140;6.498;2023-03-26T01:03:42;7.20;99.90
52879;DHT22;38747;53.140;6.498;2023-03-26T01:06:12;7.20;99.90
52879;DHT22;38747;53.140;6.498;2023-03-26T01:08:47;7.20;99.90
52879;DHT22;38747;53.140;6.498;2023-03-26T01:11:21;7.20;99.90
52879;DHT22;38747;53.140;6.498;2023-03-26T01:16:42;7.20;99.90
52879;DHT22;38747;53.140;6.498;2023-03-26T01:19:35;7.20;99.90
52879;DHT22;38747;53.140;6.498;2023-03-26T01:22:04;7.20;99.90
52879;DHT22;38747;53.140;6.498;2023-03-26T01:24:30;7.10;99.90
52879;DHT22;38747;53.140;6.498;2023-03-26T01:32:38;7.10;99.90
52879;DHT22;38747;53.140;6.498;2023-03-26T01:37:55;7.10;99.90
52879;DHT22;38747;53.140;6.498;2023-03-26T01:40:34;7.10;99.90
52879;DHT22;38747;53.140;6.498;2023-03-26T01:43:12;7.10;99.90
52879;DHT22;38747;53.140;6.498;2023-03-26T01:45:43;7.10;99.90
52879;DHT22;38747;53.140;6.498;2023-03-26T01:48:10;7.10;99.90
52879;DHT22;38747;53.140;6.498;2023-03-26T01:50:36;7.10;99.90
52879;DHT22;38747;53.140;6.498;2023-03-26T01:53:02;7.10;99.90
52879;DHT22;38747;53.140;6.498;2023-03-26T01:55:39;7.00;99.90
52879;DHT22;38747;53.140;6.498;2023-03-26T01:58:24;7.00;99.90
52879;DHT22;38747;53.140;6.498;2023-03-26T02:04:09;6.80;99.90
52879;DHT22;38747;53.140;6.498;2023-03-26T02:06:52;6.70;99.90
52879;DHT22;38747;53.140;6.498;2023-03-26T02:09:21;6.60;99.90
52879;DHT22;38747;53.140;6.498;2023-03-26T02:11:50;6.60;99.90
52879;DHT22;38747;53.140;6.498;2023-03-26T02:14:16;6.50;99.90
52879;DHT22;38747;53.140;6.498;2023-03-26T02:16:42;6.40;99.90
52879;DHT22;38747;53.140;6.498;2023-03-26T02:19:12;6.40;99.90
52879;DHT22;38747;53.140;6.498;2023-03-26T02:21:40;6.30;99.90
52879;DHT22;38747;53.140;6.498;2023-03-26T02:24:06;6.20;99.90
52879;DHT22;38747;53.140;6.498;2023-03-26T02:26:33;6.20;99.90
52879;DHT22;38747;53.140;6.498;2023-03-26T02:29:00;6.10;99.90
52879;DHT22;38747;53.140;6.498;2023-03-26T02:31:26;6.10;99.90
52879;DHT22;38747;53.140;6.498;2023-03-26T02:33:53;6.00;99.90
52879;DHT22;38747;53.140;6.498;2023-03-26T02:36:20;6.00;99.90
52879;DHT22;38747;53.140;6.498;2023-03-26T02:38:49;6.00;99.90
52879;DHT22;38747;53.140;6.498;2023-03-26T02:41:16;6.10;99.90
52879;DHT22;38747;53.140;6.498;2023-03-26T02:43:41;6.10;99.90
52879;DHT22;38747;53.140;6.498;2023-03-26T02:46:07;6.10;99.90
52879;DHT22;38747;53.140;6.498;2023-03-26T02:48:33;6.10;99.90
52879;DHT22;38747;53.140;6.498;2023-03-26T02:51:02;6.20;99.90
52879;DHT22;38747;53.140;6.498;2023-03-26T02:53:28;6.20;99.90
52879;DHT22;38747;53.140;6.498;2023-03-26T02:55:55;6.20;99.90
52879;DHT22;38747;53.140;6.498;2023-03-26T02:58:20;6.30;99.90
52879;DHT22;38747;53.140;6.498;2023-03-26T03:00:46;6.30;99.90
52879;DHT22;38747;53.140;6.498;2023-03-26T03:03:15;6.30;99.90
52879;DHT22;38747;53.140;6.498;2023-03-26T03:05:41;6.30;99.90
52879;DHT22;38747;53.140;6.498;2023-03-26T03:08:08;6.30;99.90
52879;DHT22;38747;53.140;6.498;2023-03-26T03:10:34;6.30;99.90
52879;DHT22;38747;53.140;6.498;2023-03-26T03:13:02;6.40;99.90
52879;DHT22;38747;53.140;6.498;2023-03-26T03:15:30;6.40;99.90
52879;DHT22;38747;53.140;6.498;2023-03-26T03:17:55;6.40;99.90
52879;DHT22;38747;53.140;6.498;2023-03-26T03:20:21;6.40;99.90
52879;DHT22;38747;53.140;6.498;2023-03-26T03:22:47;6.50;99.90
52879;DHT22;38747;53.140;6.498;2023-03-26T03:25:12;6.50;99.90
52879;DHT22;38747;53.140;6.498;2023-03-26T03:27:42;6.50;99.90
52879;DHT22;38747;53.140;6.498;2023-03-26T03:30:10;6.50;99.90
52879;DHT22;38747;53.140;6.498;2023-03-26T03:32:36;6.50;99.90
52879;DHT22;38747;53.140;6.498;2023-03-26T03:35:02;6.50;99.90
52879;DHT22;38747;53.140;6.498;2023-03-26T03:37:28;6.50;99.90
52879;DHT22;38747;53.140;6.498;2023-03-26T03:39:54;6.50;99.90
52879;DHT22;38747;53.140;6.498;2023-03-26T03:42:19;6.50;99.90
52879;DHT22;38747;53.140;6.498;2023-03-26T03:44:45;6.50;99.90
52879;DHT22;38747;53.140;6.498;2023-03-26T03:47:11;6.50;99.90
52879;DHT22;38747;53.140;6.498;2023-03-26T03:49:38;6.50;99.90
52879;DHT22;38747;53.140;6.498;2023-03-26T03:52:05;6.50;99.90
52879;DHT22;38747;53.140;6.498;2023-03-26T03:54:31;6.50;99.90
52879;DHT22;38747;53.140;6.498;2023-03-26T03:56:57;6.40;99.90
52879;DHT22;38747;53.140;6.498;2023-03-26T03:59:23;6.30;99.90
52879;DHT22;38747;53.140;6.498;2023-03-26T04:01:48;6.20;99.90
52879;DHT22;38747;53.140;6.498;2023-03-26T04:04:16;6.10;99.90
52879;DHT22;38747;53.140;6.498;2023-03-26T04:06:42;6.10;99.90
52879;DHT22;38747;53.140;6.498;2023-03-26T04:09:08;6.00;99.90
52879;DHT22;38747;53.140;6.498;2023-03-26T04:11:36;5.90;99.90
52879;DHT22;38747;53.140;6.498;2023-03-26T04:14:02;5.80;99.90
52879;DHT22;38747;53.140;6.498;2023-03-26T04:16:27;5.70;99.90
52879;DHT22;38747;53.140;6.498;2023-03-26T04:18:53;5.70;99.90
52879;DHT22;38747;53.140;6.498;2023-03-26T04:21:19;5.60;99.90
52879;DHT22;38747;53.140;6.498;2023-03-26T04:23:45;5.50;99.90
52879;DHT22;38747;53.140;6.498;2023-03-26T04:26:15;5.50;99.90
52879;DHT22;38747;53.140;6.498;2023-03-26T04:28:54;5.40;99.90
52879;DHT22;38747;53.140;6.498;2023-03-26T04:31:24;5.40;99.90
52879;DHT22;38747;53.140;6.498;2023-03-26T04:33:55;5.30;99.90
52879;DHT22;38747;53.140;6.498;2023-03-26T04:36:27;5.30;99.90
52879;DHT22;38747;53.140;6.498;2023-03-26T04:38:54;5.30;99.90
52879;DHT22;38747;53.140;6.498;2023-03-26T04:41:20;5.30;99.90
52879;DHT22;38747;53.140;6.498;2023-03-26T04:43:47;5.30;99.90
52879;DHT22;38747;53.140;6.498;2023-03-26T04:46:18;5.20;99.90
52879;DHT22;38747;53.140;6.498;2023-03-26T04:48:48;5.20;99.90
52879;DHT22;38747;53.140;6.498;2023-03-26T04:51:14;5.30;99.90
52879;DHT22;38747;53.140;6.498;2023-03-26T04:53:59;5.30;99.90
52879;DHT22;38747;53.140;6.498;2023-03-26T04:56:47;5.30;99.90
52879;DHT22;38747;53.140;6.498;2023-03-26T04:59:22;5.30;99.90
52879;DHT22;38747;53.140;6.498;2023-03-26T05:01:54;5.30;99.90
52879;DHT22;38747;53.140;6.498;2023-03-26T05:04:21;5.30;99.90
52879;DHT22;38747;53.140;6.498;2023-03-26T05:06:46;5.30;99.90
52879;DHT22;38747;53.140;6.498;2023-03-26T05:09:12;5.40;99.90
52879;DHT22;38747;53.140;6.498;2023-03-26T05:11:38;5.40;99.90
52879;DHT22;38747;53.140;6.498;2023-03-26T05:14:04;5.40;99.90
52879;DHT22;38747;53.140;6.498;2023-03-26T05:16:30;5.40;99.90
52879;DHT22;38747;53.140;6.498;2023-03-26T05:18:56;5.40;99.90
52879;DHT22;38747;53.140;6.498;2023-03-26T05:21:22;5.30;99.90
52879;DHT22;38747;53.140;6.498;2023-03-26T05:23:47;5.30;99.90
52879;DHT22;38747;53.140;6.498;2023-03-26T05:26:13;5.30;99.90
52879;DHT22;38747;53.140;6.498;2023-03-26T05:28:39;5.20;99.90
52879;DHT22;38747;53.140;6.498;2023-03-26T05:31:05;5.20;99.90
52879;DHT22;38747;53.140;6.498;2023-03-26T05:33:31;5.10;99.90
52879;DHT22;38747;53.140;6.498;2023-03-26T05:36:05;5.10;99.90
52879;DHT22;38747;53.140;6.498;2023-03-26T05:38:32;5.20;99.90
52879;DHT22;38747;53.140;6.498;2023-03-26T05:41:03;5.20;99.90
52879;DHT22;38747;53.140;6.498;2023-03-26T05:43:29;5.30;99.90
52879;DHT22;38747;53.140;6.498;2023-03-26T05:45:55;5.30;99.90
52879;DHT22;38747;53.140;6.498;2023-03-26T05:48:21;5.40;99.90
52879;DHT22;38747;53.140;6.498;2023-03-26T05:50:48;5.40;99.90
52879;DHT22;38747;53.140;6.498;2023-03-26T05:53:14;5.40;99.90
52879;DHT22;38747;53.140;6.498;2023-03-26T05:55:40;5.50;99.90
52879;DHT22;38747;53.140;6.498;2023-03-26T05:58:05;5.50;99.90
52879;DHT22;38747;53.140;6.498;2023-03-26T06:00:31;5.60;99.90
52879;DHT22;38747;53.140;6.498;2023-03-26T06:02:58;5.60;99.90
52879;DHT22;38747;53.140;6.498;2023-03-26T06:05:23;5.60;99.90
52879;DHT22;38747;53.140;6.498;2023-03-26T06:07:50;5.70;99.90
52879;DHT22;38747;53.140;6.498;2023-03-26T06:10:16;5.70;99.90
52879;DHT22;38747;53.140;6.498;2023-03-26T06:12:42;5.70;99.90
52879;DHT22;38747;53.140;6.498;2023-03-26T06:15:09;5.80;99.90
52879;DHT22;38747;53.140;6.498;2023-03-26T06:17:34;5.80;99.90
52879;DHT22;38747;53.140;6.498;2023-03-26T06:20:00;5.80;99.90
52879;DHT22;38747;53.140;6.498;2023-03-26T06:22:26;5.90;99.90
52879;DHT22;38747;53.140;6.498;2023-03-26T06:24:51;5.90;99.90
52879;DHT22;38747;53.140;6.498;2023-03-26T06:27:17;5.90;99.90
52879;DHT22;38747;53.140;6.498;2023-03-26T06:29:43;6.00;99.90
52879;DHT22;38747;53.140;6.498;2023-03-26T06:32:08;6.00;99.90
52879;DHT22;38747;53.140;6.498;2023-03-26T06:34:34;6.10;99.90
52879;DHT22;38747;53.140;6.498;2023-03-26T06:36:59;6.10;99.90
52879;DHT22;38747;53.140;6.498;2023-03-26T06:39:25;6.10;99.90
52879;DHT22;38747;53.140;6.498;2023-03-26T06:41:51;6.20;99.90
52879;DHT22;38747;53.140;6.498;2023-03-26T06:44:16;6.20;99.90
52879;DHT22;38747;53.140;6.498;2023-03-26T06:46:42;6.20;99.90
52879;DHT22;38747;53.140;6.498;2023-03-26T06:49:08;6.30;99.90
52879;DHT22;38747;53.140;6.498;2023-03-26T06:51:34;6.30;99.90
52879;DHT22;38747;53.140;6.498;2023-03-26T06:53:59;6.30;99.90
52879;DHT22;38747;53.140;6.498;2023-03-26T06:56:25;6.40;99.90
52879;DHT22;38747;53.140;6.498;2023-03-26T06:58:51;6.40;99.90
52879;DHT22;38747;53.140;6.498;2023-03-26T07:01:16;6.40;99.90
52879;DHT22;38747;53.140;6.498;2023-03-26T07:03:42;6.40;99.90
52879;DHT22;38747;53.140;6.498;2023-03-26T07:06:07;6.40;99.90
52879;DHT22;38747;53.140;6.498;2023-03-26T07:08:33;6.40;99.90
52879;DHT22;38747;53.140;6.498;2023-03-26T07:10:59;6.50;99.90
52879;DHT22;38747;53.140;6.498;2023-03-26T07:13:25;6.50;99.90
52879;DHT22;38747;53.140;6.498;2023-03-26T07:15:50;6.60;99.90
52879;DHT22;38747;53.140;6.498;2023-03-26T07:18:16;6.60;99.90
52879;DHT22;38747;53.140;6.498;2023-03-26T07:20:43;6.60;99.90
52879;DHT22;38747;53.140;6.498;2023-03-26T07:23:10;6.60;99.90
52879;DHT22;38747;53.140;6.498;2023-03-26T07:25:36;6.70;99.90
52879;DHT22;38747;53.140;6.498;2023-03-26T07:28:33;6.70;99.90
52879;DHT22;38747;53.140;6.498;2023-03-26T07:33:54;6.80;99.90
52879;DHT22;38747;53.140;6.498;2023-03-26T07:36:37;6.80;99.90
52879;DHT22;38747;53.140;6.498;2023-03-26T07:42:46;6.90;99.90
52879;DHT22;38747;53.140;6.498;2023-03-26T07:45:38;6.90;99.90
52879;DHT22;38747;53.140;6.498;2023-03-26T07:48:14;6.90;99.90
52879;DHT22;38747;53.140;6.498;2023-03-26T07:50:42;6.90;99.90
52879;DHT22;38747;53.140;6.498;2023-03-26T07:53:08;7.00;99.90
52879;DHT22;38747;53.140;6.498;2023-03-26T07:55:39;7.00;99.90
52879;DHT22;38747;53.140;6.498;2023-03-26T07:58:34;7.00;99.90
52879;DHT22;38747;53.140;6.498;2023-03-26T08:01:26;7.00;99.90
52879;DHT22;38747;53.140;6.498;2023-03-26T08:06:48;7.10;99.90
52879;DHT22;38747;53.140;6.498;2023-03-26T08:14:35;7.20;99.90
52879;DHT22;38747;53.140;6.498;2023-03-26T08:17:34;7.20;99.90
52879;DHT22;38747;53.140;6.498;2023-03-26T08:20:31;7.20;99.90
52879;DHT22;38747;53.140;6.498;2023-03-26T08:23:19;7.20;99.90
52879;DHT22;38747;53.140;6.498;2023-03-26T08:30:59;7.10;99.90
52879;DHT22;38747;53.140;6.498;2023-03-26T08:33:27;7.10;99.90
52879;DHT22;38747;53.140;6.498;2023-03-26T08:35:53;7.10;99.90
52879;DHT22;38747;53.140;6.498;2023-03-26T08:38:20;7.20;99.90
52879;DHT22;38747;53.140;6.498;2023-03-26T08:49:34;7.60;99.90
52879;DHT22;38747;53.140;6.498;2023-03-26T09:11:31;8.30;99.90
52879;DHT22;38747;53.140;6.498;2023-03-26T09:32:58;8.50;99.90
52879;DHT22;38747;53.140;6.498;2023-03-26T09:38:52;8.40;99.90
52879;DHT22;38747;53.140;6.498;2023-03-26T09:41:51;8.40;99.90
52879;DHT22;38747;53.140;6.498;2023-03-26T09:44:45;8.30;99.90
52879;DHT22;38747;53.140;6.498;2023-03-26T09:52:51;8.10;99.90
52879;DHT22;38747;53.140;6.498;2023-03-26T10:04:55;8.20;99.90
52879;DHT22;38747;53.140;6.498;2023-03-26T10:07:59;8.20;99.90
52879;DHT22;38747;53.140;6.498;2023-03-26T10:10:46;8.30;99.90
52879;DHT22;38747;53.140;6.498;2023-03-26T10:13:23;8.40;99.90
52879;DHT22;38747;53.140;6.498;2023-03-26T10:21:50;8.50;99.90
52879;DHT22;38747;53.140;6.498;2023-03-26T10:35:38;8.50;99.90
52879;DHT22;38747;53.140;6.498;2023-03-26T10:41:08;8.50;99.90
52879;DHT22;38747;53.140;6.498;2023-03-26T10:52:02;8.50;99.90
52879;DHT22;38747;53.140;6.498;2023-03-26T11:00:18;8.60;99.90
52879;DHT22;38747;53.140;6.498;2023-03-26T11:03:19;8.60;99.90
52879;DHT22;38747;53.140;6.498;2023-03-26T11:06:15;8.50;99.90
52879;DHT22;38747;53.140;6.498;2023-03-26T11:14:36;8.50;99.90
52879;DHT22;38747;53.140;6.498;2023-03-26T11:20:15;8.40;99.90
52879;DHT22;38747;53.140;6.498;2023-03-26T11:23:10;8.40;99.90
52879;DHT22;38747;53.140;6.498;2023-03-26T11:25:56;8.60;99.90
52879;DHT22;38747;53.140;6.498;2023-03-26T11:33:56;8.80;99.90
52879;DHT22;38747;53.140;6.498;2023-03-26T11:36:28;8.90;99.90
52879;DHT22;38747;53.140;6.498;2023-03-26T11:38:58;9.10;99.90
52879;DHT22;38747;53.140;6.498;2023-03-26T11:41:27;9.00;99.90
52879;DHT22;38747;53.140;6.498;2023-03-26T11:43:58;9.00;99.90
52879;DHT22;38747;53.140;6.498;2023-03-26T11:46:25;8.90;99.90
52879;DHT22;38747;53.140;6.498;2023-03-26T11:49:03;8.90;99.90
52879;DHT22;38747;53.140;6.498;2023-03-26T11:51:35;8.90;99.90
52879;DHT22;38747;53.140;6.498;2023-03-26T11:54:02;8.90;99.90
52879;DHT22;38747;53.140;6.498;2023-03-26T11:56:42;8.80;99.90
52879;DHT22;38747;53.140;6.498;2023-03-26T11:59:27;8.80;99.90
52879;DHT22;38747;53.140;6.498;2023-03-26T12:04:40;8.70;99.90
52879;DHT22;38747;53.140;6.498;2023-03-26T12:07:19;8.70;99.90
52879;DHT22;38747;53.140;6.498;2023-03-26T12:12:16;8.70;99.90
52879;DHT22;38747;53.140;6.498;2023-03-26T12:14:42;8.80;99.90
52879;DHT22;38747;53.140;6.498;2023-03-26T12:17:13;9.10;99.90
52879;DHT22;38747;53.140;6.498;2023-03-26T12:19:41;9.10;99.90
52879;DHT22;38747;53.140;6.498;2023-03-26T12:22:27;9.20;99.90
52879;DHT22;38747;53.140;6.498;2023-03-26T12:25:17;9.20;99.90
52879;DHT22;38747;53.140;6.498;2023-03-26T12:30:51;9.10;99.90
52879;DHT22;38747;53.140;6.498;2023-03-26T12:33:26;9.10;99.90
52879;DHT22;38747;53.140;6.498;2023-03-26T12:35:53;9.10;99.90
52879;DHT22;38747;53.140;6.498;2023-03-26T12:38:28;9.20;99.90
52879;DHT22;38747;53.140;6.498;2023-03-26T12:41:13;9.10;99.90
52879;DHT22;38747;53.140;6.498;2023-03-26T12:43:41;9.00;99.90
52879;DHT22;38747;53.140;6.498;2023-03-26T12:46:26;9.00;99.90
52879;DHT22;38747;53.140;6.498;2023-03-26T12:48:55;9.00;99.90
52879;DHT22;38747;53.140;6.498;2023-03-26T12:59:40;8.60;99.90
52879;DHT22;38747;53.140;6.498;2023-03-26T13:11:18;9.00;99.90
52879;DHT22;38747;53.140;6.498;2023-03-26T13:16:59;9.10;99.90
52879;DHT22;38747;53.140;6.498;2023-03-26T13:24:47;9.00;99.90
52879;DHT22;38747;53.140;6.498;2023-03-26T13:27:50;8.90;99.90
52879;DHT22;38747;53.140;6.498;2023-03-26T13:30:22;8.80;99.90
52879;DHT22;38747;53.140;6.498;2023-03-26T13:38:52;8.50;99.90
52879;DHT22;38747;53.140;6.498;2023-03-26T13:41:47;8.40;99.90
52879;DHT22;38747;53.140;6.498;2023-03-26T13:47:13;8.50;99.90
52879;DHT22;38747;53.140;6.498;2023-03-26T13:49:50;8.30;99.90
52879;DHT22;38747;53.140;6.498;2023-03-26T13:52:23;8.30;99.90
52879;DHT22;38747;53.140;6.498;2023-03-26T13:57:42;8.30;99.90
52879;DHT22;38747;53.140;6.498;2023-03-26T14:00:23;8.40;99.90
52879;DHT22;38747;53.140;6.498;2023-03-26T14:03:07;8.30;99.90
52879;DHT22;38747;53.140;6.498;2023-03-26T14:05:54;8.30;99.90
52879;DHT22;38747;53.140;6.498;2023-03-26T14:08:37;8.10;99.90
52879;DHT22;38747;53.140;6.498;2023-03-26T14:11:20;8.20;99.90
52879;DHT22;38747;53.140;6.498;2023-03-26T14:14:05;8.20;99.90
52879;DHT22;38747;53.140;6.498;2023-03-26T14:16:47;8.20;99.90
52879;DHT22;38747;53.140;6.498;2023-03-26T14:28:01;8.20;99.90
52879;DHT22;38747;53.140;6.498;2023-03-26T14:31:05;8.30;99.90
52879;DHT22;38747;53.140;6.498;2023-03-26T14:33:44;8.10;99.90
52879;DHT22;38747;53.140;6.498;2023-03-26T14:36:21;8.00;99.90
52879;DHT22;38747;53.140;6.498;2023-03-26T14:41:48;8.00;99.90
52879;DHT22;38747;53.140;6.498;2023-03-26T14:47:12;8.10;99.90
52879;DHT22;38747;53.140;6.498;2023-03-26T14:55:04;7.80;99.90
52879;DHT22;38747;53.140;6.498;2023-03-26T15:03:38;8.10;99.90
52879;DHT22;38747;53.140;6.498;2023-03-26T15:18:21;8.00;99.90
52879;DHT22;38747;53.140;6.498;2023-03-26T15:21:21;7.80;99.90
52879;DHT22;38747;53.140;6.498;2023-03-26T15:29:37;7.60;99.90
52879;DHT22;38747;53.140;6.498;2023-03-26T15:43:14;7.50;99.90
52879;DHT22;38747;53.140;6.498;2023-03-26T15:49:00;7.50;99.90
52879;DHT22;38747;53.140;6.498;2023-03-26T15:51:48;7.50;99.90
52879;DHT22;38747;53.140;6.498;2023-03-26T15:54:31;7.50;99.90
52879;DHT22;38747;53.140;6.498;2023-03-26T16:10:56;7.40;99.90
52879;DHT22;38747;53.140;6.498;2023-03-26T16:18:41;7.30;99.90
52879;DHT22;38747;53.140;6.498;2023-03-26T16:29:20;7.20;99.90
52879;DHT22;38747;53.140;6.498;2023-03-26T16:32:04;7.20;99.90
52879;DHT22;38747;53.140;6.498;2023-03-26T16:34:51;7.30;99.90
52879;DHT22;38747;53.140;6.498;2023-03-26T16:37:36;7.20;99.90
52879;DHT22;38747;53.140;6.498;2023-03-26T16:45:45;7.00;99.90
52879;DHT22;38747;53.140;6.498;2023-03-26T16:48:53;6.80;99.90
52879;DHT22;38747;53.140;6.498;2023-03-26T16:51:14;6.60;99.90
52879;DHT22;38747;53.140;6.498;2023-03-26T16:53:53;6.50;99.90
52879;DHT22;38747;53.140;6.498;2023-03-26T16:56:51;6.40;99.90
52879;DHT22;38747;53.140;6.498;2023-03-26T17:05:06;6.30;99.90
52879;DHT22;38747;53.140;6.498;2023-03-26T17:27:25;6.20;99.90
52879;DHT22;38747;53.140;6.498;2023-03-26T17:35:45;6.00;99.90
52879;DHT22;38747;53.140;6.498;2023-03-26T17:43:13;6.20;99.90
52879;DHT22;38747;53.140;6.498;2023-03-26T17:45:56;6.10;99.90
52879;DHT22;38747;53.140;6.498;2023-03-26T17:48:22;6.10;99.90
52879;DHT22;38747;53.140;6.498;2023-03-26T17:51:02;6.10;99.90
52879;DHT22;38747;53.140;6.498;2023-03-26T17:53:30;6.10;99.90
52879;DHT22;38747;53.140;6.498;2023-03-26T17:56:02;6.00;99.90
52879;DHT22;38747;53.140;6.498;2023-03-26T17:58:38;6.00;99.90
52879;DHT22;38747;53.140;6.498;2023-03-26T18:03:43;5.90;99.90
52879;DHT22;38747;53.140;6.498;2023-03-26T18:06:33;5.80;99.90
52879;DHT22;38747;53.140;6.498;2023-03-26T18:20:51;5.60;99.90
52879;DHT22;38747;53.140;6.498;2023-03-26T18:24:04;5.50;99.90
52879;DHT22;38747;53.140;6.498;2023-03-26T18:28:49;5.40;99.90
52879;DHT22;38747;53.140;6.498;2023-03-26T18:31:23;5.40;99.90
52879;DHT22;38747;53.140;6.498;2023-03-26T18:33:55;5.40;99.90
52879;DHT22;38747;53.140;6.498;2023-03-26T18:36:25;5.40;99.90
52879;DHT22;38747;53.140;6.498;2023-03-26T18:38:57;5.40;99.90
52879;DHT22;38747;53.140;6.498;2023-03-26T18:41:34;5.40;99.90
52879;DHT22;38747;53.140;6.498;2023-03-26T18:44:12;5.30;99.90
52879;DHT22;38747;53.140;6.498;2023-03-26T18:46:39;5.30;99.90
52879;DHT22;38747;53.140;6.498;2023-03-26T18:49:05;5.20;99.90
52879;DHT22;38747;53.140;6.498;2023-03-26T18:51:31;5.20;99.90
52879;DHT22;38747;53.140;6.498;2023-03-26T18:53:59;5.20;99.90
52879;DHT22;38747;53.140;6.498;2023-03-26T18:56:39;5.20;99.90
52879;DHT22;38747;53.140;6.498;2023-03-26T18:59:26;5.10;99.90
52879;DHT22;38747;53.140;6.498;2023-03-26T19:01:54;5.00;99.90
52879;DHT22;38747;53.140;6.498;2023-03-26T19:04:24;5.00;99.90
52879;DHT22;38747;53.140;6.498;2023-03-26T19:06:51;5.00;99.90
52879;DHT22;38747;53.140;6.498;2023-03-26T19:09:18;5.00;99.90
52879;DHT22;38747;53.140;6.498;2023-03-26T19:11:44;4.90;99.90
52879;DHT22;38747;53.140;6.498;2023-03-26T19:14:17;4.90;99.90
52879;DHT22;38747;53.140;6.498;2023-03-26T19:16:54;4.90;99.90
52879;DHT22;38747;53.140;6.498;2023-03-26T19:19:25;4.90;99.90
52879;DHT22;38747;53.140;6.498;2023-03-26T19:21:51;4.80;99.90
52879;DHT22;38747;53.140;6.498;2023-03-26T19:24:20;4.70;99.90
52879;DHT22;38747;53.140;6.498;2023-03-26T19:26:46;4.70;99.90
52879;DHT22;38747;53.140;6.498;2023-03-26T19:29:22;4.70;99.90
52879;DHT22;38747;53.140;6.498;2023-03-26T19:31:50;4.70;99.90
52879;DHT22;38747;53.140;6.498;2023-03-26T19:34:38;4.60;99.90
52879;DHT22;38747;53.140;6.498;2023-03-26T19:37:17;4.60;99.90
52879;DHT22;38747;53.140;6.498;2023-03-26T19:39:54;4.60;99.90
52879;DHT22;38747;53.140;6.498;2023-03-26T19:42:27;4.50;99.90
52879;DHT22;38747;53.140;6.498;2023-03-26T19:44:55;4.50;99.90
52879;DHT22;38747;53.140;6.498;2023-03-26T19:47:23;4.50;99.90
52879;DHT22;38747;53.140;6.498;2023-03-26T19:49:57;4.50;99.90
52879;DHT22;38747;53.140;6.498;2023-03-26T19:52:27;4.40;99.90
52879;DHT22;38747;53.140;6.498;2023-03-26T19:55:23;4.40;99.90
52879;DHT22;38747;53.140;6.498;2023-03-26T19:57:49;4.40;99.90
52879;DHT22;38747;53.140;6.498;2023-03-26T20:00:16;4.40;99.90
52879;DHT22;38747;53.140;6.498;2023-03-26T20:02:43;4.30;99.90
52879;DHT22;38747;53.140;6.498;2023-03-26T20:07:47;4.20;99.90
52879;DHT22;38747;53.140;6.498;2023-03-26T20:10:14;4.20;99.90
52879;DHT22;38747;53.140;6.498;2023-03-26T20:12:40;4.10;99.90
52879;DHT22;38747;53.140;6.498;2023-03-26T20:15:21;4.10;99.90
52879;DHT22;38747;53.140;6.498;2023-03-26T20:17:47;4.10;99.90
52879;DHT22;38747;53.140;6.498;2023-03-26T20:20:21;4.00;99.90
52879;DHT22;38747;53.140;6.498;2023-03-26T20:22:50;4.00;99.90
52879;DHT22;38747;53.140;6.498;2023-03-26T20:25:31;4.10;99.90
52879;DHT22;38747;53.140;6.498;2023-03-26T20:27:57;4.10;99.90
52879;DHT22;38747;53.140;6.498;2023-03-26T20:30:24;4.10;99.90
52879;DHT22;38747;53.140;6.498;2023-03-26T20:32:50;4.20;99.90
52879;DHT22;38747;53.140;6.498;2023-03-26T20:35:22;4.20;99.90
52879;DHT22;38747;53.140;6.498;2023-03-26T20:37:48;4.20;99.90
52879;DHT22;38747;53.140;6.498;2023-03-26T20:40:14;4.10;99.90
52879;DHT22;38747;53.140;6.498;2023-03-26T20:42:42;4.20;99.90
52879;DHT22;38747;53.140;6.498;2023-03-26T20:45:20;4.20;99.90
52879;DHT22;38747;53.140;6.498;2023-03-26T20:47:48;4.20;99.90
52879;DHT22;38747;53.140;6.498;2023-03-26T20:50:16;4.20;99.90
52879;DHT22;38747;53.140;6.498;2023-03-26T20:52:42;4.10;99.90
52879;DHT22;38747;53.140;6.498;2023-03-26T20:55:13;4.10;99.90
52879;DHT22;38747;53.140;6.498;2023-03-26T20:57:40;4.10;99.90
52879;DHT22;38747;53.140;6.498;2023-03-26T21:00:06;4.10;99.90
52879;DHT22;38747;53.140;6.498;2023-03-26T21:02:53;4.00;99.90
52879;DHT22;38747;53.140;6.498;2023-03-26T21:05:21;4.00;99.90
52879;DHT22;38747;53.140;6.498;2023-03-26T21:07:56;3.90;99.90
52879;DHT22;38747;53.140;6.498;2023-03-26T21:10:23;3.90;99.90
52879;DHT22;38747;53.140;6.498;2023-03-26T21:15:19;3.80;99.90
52879;DHT22;38747;53.140;6.498;2023-03-26T21:17:46;3.80;99.90
52879;DHT22;38747;53.140;6.498;2023-03-26T21:20:13;3.70;99.90
52879;DHT22;38747;53.140;6.498;2023-03-26T21:30:30;3.60;99.90
52879;DHT22;38747;53.140;6.498;2023-03-26T21:32:57;3.60;99.90
52879;DHT22;38747;53.140;6.498;2023-03-26T21:35:24;3.50;99.90
52879;DHT22;38747;53.140;6.498;2023-03-26T21:37:51;3.50;99.90
52879;DHT22;38747;53.140;6.498;2023-03-26T21:40:17;3.50;99.90
52879;DHT22;38747;53.140;6.498;2023-03-26T21:42:49;3.50;99.90
52879;DHT22;38747;53.140;6.498;2023-03-26T21:45:15;3.50;99.90
52879;DHT22;38747;53.140;6.498;2023-03-26T21:47:41;3.40;99.90
52879;DHT22;38747;53.140;6.498;2023-03-26T21:50:08;3.30;99.90
52879;DHT22;38747;53.140;6.498;2023-03-26T21:52:35;3.30;99.90
52879;DHT22;38747;53.140;6.498;2023-03-26T21:55:02;3.30;99.90
52879;DHT22;38747;53.140;6.498;2023-03-26T21:57:42;3.30;99.90
52879;DHT22;38747;53.140;6.498;2023-03-26T22:00:14;3.30;99.90
52879;DHT22;38747;53.140;6.498;2023-03-26T22:08:34;3.20;99.90